^^
Station Historical Data
Daily Summary for August 10, 2018 Units:  Both    English   Metric
« Previous Day
Next Day »
Daily Weekly Monthly Yearly Custom
  High: Low: Average:
Temperature: TemperatureF °F /  -17.8 °C 50.4 °F /  10.2 °C 65.9 °F /  18.8 °C
Dew Point: DewpointF °F /  -17.8 °C 41.9 °F /  5.5 °C 44.8 °F /  7.1 °C
Humidity: Humidity % 29 % 49 %
Wind Speed: WindSpeedMPH mph /  0 km/h - 7.4 mph /  11.9 km/h
Wind Gust: WindSpeedGustMPH mph /  0 km/h - -
Wind:- - SE
Pressure: PressureIn in /  0 hPa 29.98 in /  1015.1 hPa -
Precipitation: 0 in /  0 mm    
Historical Graphs
 
 
Tabular Data for August 10, 2018
Time Temperature Dew Point Pressure Wind Wind Speed Wind Gust Humidity Rainfall Rate (Hourly)
TemperatureF °F /  -17.8 °C DewpointF °F /  -17.8 °C PressureIn in /  0 hPa Calm     Humidity % HourlyPrecipIn in /  0 mm
00:04 57.9 °F /  14.4 °C 42.8 °F /  6 °C 30.10 in /  1019.2 hPa SW 6 mph /  9.7 km/h 8 mph /  12.9 km/h 57 % 0 in /  0 mm
00:09 57.9 °F /  14.4 °C 42.8 °F /  6 °C 30.10 in /  1019.2 hPa SSW 6.9 mph /  11.1 km/h 8 mph /  12.9 km/h 57 % 0 in /  0 mm
00:14 57.7 °F /  14.3 °C 42.6 °F /  5.9 °C 30.10 in /  1019.2 hPa SW 4 mph /  6.4 km/h 9 mph /  14.5 km/h 57 % 0 in /  0 mm
00:19 57.7 °F /  14.3 °C 42.6 °F /  5.9 °C 30.10 in /  1019.2 hPa WSW 8.9 mph /  14.3 km/h 9 mph /  14.5 km/h 57 % 0 in /  0 mm
00:24 57.9 °F /  14.4 °C 42.8 °F /  6 °C 30.10 in /  1019.2 hPa SW 6.9 mph /  11.1 km/h 10 mph /  16.1 km/h 57 % 0 in /  0 mm
00:29 57.4 °F /  14.1 °C 42.8 °F /  6 °C 30.10 in /  1019.2 hPa SSW 6.9 mph /  11.1 km/h 8 mph /  12.9 km/h 58 % 0 in /  0 mm
00:34 57 °F /  13.9 °C 42.4 °F /  5.8 °C 30.10 in /  1019.2 hPa SSW 4 mph /  6.4 km/h 9 mph /  14.5 km/h 58 % 0 in /  0 mm
00:39 56.8 °F /  13.8 °C 43.2 °F /  6.2 °C 30.10 in /  1019.2 hPa SW 8.1 mph /  13 km/h 10 mph /  16.1 km/h 60 % 0 in /  0 mm
00:44 56.8 °F /  13.8 °C 43.2 °F /  6.2 °C 30.10 in /  1019.2 hPa SW 8.1 mph /  13 km/h 10 mph /  16.1 km/h 60 % 0 in /  0 mm
00:49 56.8 °F /  13.8 °C 43.2 °F /  6.2 °C 30.10 in /  1019.2 hPa SSW 8.9 mph /  14.3 km/h 11 mph /  17.7 km/h 60 % 0 in /  0 mm
00:54 56.5 °F /  13.6 °C 43.2 °F /  6.2 °C 30.10 in /  1019.2 hPa West 6.9 mph /  11.1 km/h 9 mph /  14.5 km/h 61 % 0 in /  0 mm
00:59 56.7 °F /  13.7 °C 43.3 °F /  6.3 °C 30.10 in /  1019.2 hPa SSE 4.9 mph /  7.9 km/h 10 mph /  16.1 km/h 61 % 0 in /  0 mm
01:04 55.9 °F /  13.3 °C 43.5 °F /  6.4 °C 30.10 in /  1019.2 hPa SSW 6.9 mph /  11.1 km/h 9 mph /  14.5 km/h 63 % 0 in /  0 mm
01:09 55.9 °F /  13.3 °C 43.2 °F /  6.2 °C 30.10 in /  1019.2 hPa SW 8.1 mph /  13 km/h 12 mph /  19.3 km/h 62 % 0 in /  0 mm
01:14 56.1 °F /  13.4 °C 42.8 °F /  6 °C 30.10 in /  1019.2 hPa WSW 8.1 mph /  13 km/h 10 mph /  16.1 km/h 61 % 0 in /  0 mm
01:19 55.9 °F /  13.3 °C 43.5 °F /  6.4 °C 30.09 in /  1018.8 hPa SW 6 mph /  9.7 km/h 10 mph /  16.1 km/h 63 % 0 in /  0 mm
01:24 55.8 °F /  13.2 °C 43 °F /  6.1 °C 30.09 in /  1018.8 hPa SW 8.1 mph /  13 km/h 9 mph /  14.5 km/h 62 % 0 in /  0 mm
01:29 55.8 °F /  13.2 °C 43.3 °F /  6.3 °C 30.09 in /  1018.8 hPa South 4.9 mph /  7.9 km/h 10 mph /  16.1 km/h 63 % 0 in /  0 mm
01:34 55.6 °F /  13.1 °C 43.5 °F /  6.4 °C 30.09 in /  1018.8 hPa South 6 mph /  9.7 km/h 10 mph /  16.1 km/h 64 % 0 in /  0 mm
01:39 56.1 °F /  13.4 °C 43.3 °F /  6.3 °C 30.09 in /  1018.8 hPa SW 8.1 mph /  13 km/h 9 mph /  14.5 km/h 62 % 0 in /  0 mm
01:44 56.7 °F /  13.7 °C 43.7 °F /  6.5 °C 30.09 in /  1018.8 hPa SSW 4.9 mph /  7.9 km/h 8 mph /  12.9 km/h 62 % 0 in /  0 mm
01:49 56.7 °F /  13.7 °C 43.3 °F /  6.3 °C 30.09 in /  1018.8 hPa SW 4.9 mph /  7.9 km/h 6 mph /  9.7 km/h 61 % 0 in /  0 mm
01:54 56.5 °F /  13.6 °C 43.7 °F /  6.5 °C 30.09 in /  1018.8 hPa SE 2.9 mph /  4.7 km/h 6 mph /  9.7 km/h 62 % 0 in /  0 mm
01:59 56.3 °F /  13.5 °C 43.9 °F /  6.6 °C 30.09 in /  1018.8 hPa SSW 6 mph /  9.7 km/h 7 mph /  11.3 km/h 63 % 0 in /  0 mm
02:04 56.1 °F /  13.4 °C 43.7 °F /  6.5 °C 30.09 in /  1018.8 hPa SW 4 mph /  6.4 km/h 8 mph /  12.9 km/h 63 % 0 in /  0 mm
02:09 55.4 °F /  13 °C 43.9 °F /  6.6 °C 30.09 in /  1018.8 hPa SSE 4 mph /  6.4 km/h 9 mph /  14.5 km/h 65 % 0 in /  0 mm
02:14 55 °F /  12.8 °C 43.9 °F /  6.6 °C 30.09 in /  1018.8 hPa SW 6.9 mph /  11.1 km/h 9 mph /  14.5 km/h 66 % 0 in /  0 mm
02:19 55 °F /  12.8 °C 44.2 °F /  6.8 °C 30.09 in /  1018.8 hPa SSW 6.9 mph /  11.1 km/h 11 mph /  17.7 km/h 67 % 0 in /  0 mm
02:24 54.9 °F /  12.7 °C 44.1 °F /  6.7 °C 30.08 in /  1018.5 hPa WSW 6 mph /  9.7 km/h 10 mph /  16.1 km/h 67 % 0 in /  0 mm
02:29 55 °F /  12.8 °C 43.9 °F /  6.6 °C 30.08 in /  1018.5 hPa SW 6.9 mph /  11.1 km/h 9 mph /  14.5 km/h 66 % 0 in /  0 mm
02:34 55.2 °F /  12.9 °C 43.7 °F /  6.5 °C 30.08 in /  1018.5 hPa WSW 8.9 mph /  14.3 km/h 9 mph /  14.5 km/h 65 % 0 in /  0 mm
02:39 55.6 °F /  13.1 °C 43.5 °F /  6.4 °C 30.08 in /  1018.5 hPa SW 6.9 mph /  11.1 km/h 10 mph /  16.1 km/h 64 % 0 in /  0 mm
02:44 55.4 °F /  13 °C 44.2 °F /  6.8 °C 30.08 in /  1018.5 hPa South 6 mph /  9.7 km/h 10 mph /  16.1 km/h 66 % 0 in /  0 mm
02:49 54.9 °F /  12.7 °C 44.1 °F /  6.7 °C 30.08 in /  1018.5 hPa SSW 6.9 mph /  11.1 km/h 11 mph /  17.7 km/h 67 % 0 in /  0 mm
02:54 54.7 °F /  12.6 °C 43.9 °F /  6.6 °C 30.08 in /  1018.5 hPa SW 8.9 mph /  14.3 km/h 10 mph /  16.1 km/h 67 % 0 in /  0 mm
02:59 54.7 °F /  12.6 °C 43.9 °F /  6.6 °C 30.08 in /  1018.5 hPa SSE 6.9 mph /  11.1 km/h 10 mph /  16.1 km/h 67 % 0 in /  0 mm
03:04 54.7 °F /  12.6 °C 43.9 °F /  6.6 °C 30.08 in /  1018.5 hPa SSW 4.9 mph /  7.9 km/h 8 mph /  12.9 km/h 67 % 0 in /  0 mm
03:09 54.7 °F /  12.6 °C 43.9 °F /  6.6 °C 30.07 in /  1018.2 hPa SW 8.1 mph /  13 km/h 8 mph /  12.9 km/h 67 % 0 in /  0 mm
03:14 54.3 °F /  12.4 °C 44.1 °F /  6.7 °C 30.08 in /  1018.5 hPa SW 4.9 mph /  7.9 km/h 8 mph /  12.9 km/h 68 % 0 in /  0 mm
03:19 54.1 °F /  12.3 °C 44.2 °F /  6.8 °C 30.08 in /  1018.5 hPa SSW 4.9 mph /  7.9 km/h 8 mph /  12.9 km/h 69 % 0 in /  0 mm
03:24 54.1 °F /  12.3 °C 44.2 °F /  6.8 °C 30.07 in /  1018.2 hPa SSW 6 mph /  9.7 km/h 8 mph /  12.9 km/h 69 % 0 in /  0 mm
03:29 54.3 °F /  12.4 °C 44.1 °F /  6.7 °C 30.07 in /  1018.2 hPa SW 4.9 mph /  7.9 km/h 8 mph /  12.9 km/h 68 % 0 in /  0 mm
03:34 54.3 °F /  12.4 °C 44.1 °F /  6.7 °C 30.07 in /  1018.2 hPa SW 6 mph /  9.7 km/h 8 mph /  12.9 km/h 68 % 0 in /  0 mm
03:39 54.5 °F /  12.5 °C 44.2 °F /  6.8 °C 30.07 in /  1018.2 hPa SSW 4 mph /  6.4 km/h 5 mph /  8 km/h 68 % 0 in /  0 mm
03:44 54.7 °F /  12.6 °C 43.9 °F /  6.6 °C 30.07 in /  1018.2 hPa South 6.9 mph /  11.1 km/h 8 mph /  12.9 km/h 67 % 0 in /  0 mm
03:49 54.3 °F /  12.4 °C 44.1 °F /  6.7 °C 30.08 in /  1018.5 hPa South 2.9 mph /  4.7 km/h 6 mph /  9.7 km/h 68 % 0 in /  0 mm
03:54 54.1 °F /  12.3 °C 43.3 °F /  6.3 °C 30.08 in /  1018.5 hPa SSW 4.9 mph /  7.9 km/h 7 mph /  11.3 km/h 67 % 0 in /  0 mm
03:59 54.1 °F /  12.3 °C 43.9 °F /  6.6 °C 30.08 in /  1018.5 hPa SE 4 mph /  6.4 km/h 7 mph /  11.3 km/h 68 % 0 in /  0 mm
04:04 54.3 °F /  12.4 °C 43.5 °F /  6.4 °C 30.08 in /  1018.5 hPa SSW 6.9 mph /  11.1 km/h 9 mph /  14.5 km/h 67 % 0 in /  0 mm
04:09 54.5 °F /  12.5 °C 43.7 °F /  6.5 °C 30.08 in /  1018.5 hPa SW 10.1 mph /  16.3 km/h 10 mph /  16.1 km/h 67 % 0 in /  0 mm
04:14 54.5 °F /  12.5 °C 43.7 °F /  6.5 °C 30.08 in /  1018.5 hPa SSE 6.9 mph /  11.1 km/h 9 mph /  14.5 km/h 67 % 0 in /  0 mm
04:19 54 °F /  12.2 °C 43.7 °F /  6.5 °C 30.07 in /  1018.2 hPa SSE 11 mph /  17.7 km/h 11 mph /  17.7 km/h 68 % 0 in /  0 mm
04:24 53.4 °F /  11.9 °C 43.5 °F /  6.4 °C 30.07 in /  1018.2 hPa WNW 6.9 mph /  11.1 km/h 12 mph /  19.3 km/h 69 % 0 in /  0 mm
04:29 53.2 °F /  11.8 °C 43.3 °F /  6.3 °C 30.08 in /  1018.5 hPa SSW 10.1 mph /  16.3 km/h 12 mph /  19.3 km/h 69 % 0 in /  0 mm
04:34 53.2 °F /  11.8 °C 43.3 °F /  6.3 °C 30.08 in /  1018.5 hPa SSW 6 mph /  9.7 km/h 9 mph /  14.5 km/h 69 % 0 in /  0 mm
04:39 53.4 °F /  11.9 °C 43.5 °F /  6.4 °C 30.08 in /  1018.5 hPa SSW 8.9 mph /  14.3 km/h 12 mph /  19.3 km/h 69 % 0 in /  0 mm
04:44 53.1 °F /  11.7 °C 43.5 °F /  6.4 °C 30.08 in /  1018.5 hPa South 10.1 mph /  16.3 km/h 12 mph /  19.3 km/h 70 % 0 in /  0 mm
04:49 52.9 °F /  11.6 °C 43.7 °F /  6.5 °C 30.08 in /  1018.5 hPa SSW 8.1 mph /  13 km/h 12 mph /  19.3 km/h 71 % 0 in /  0 mm
04:54 52.5 °F /  11.4 °C 43.7 °F /  6.5 °C 30.08 in /  1018.5 hPa SW 11 mph /  17.7 km/h 12 mph /  19.3 km/h 72 % 0 in /  0 mm
04:59 52 °F /  11.1 °C 43.5 °F /  6.4 °C 30.07 in /  1018.2 hPa SSW 8.9 mph /  14.3 km/h 13 mph /  20.9 km/h 73 % 0 in /  0 mm
05:04 51.6 °F /  10.9 °C 43.3 °F /  6.3 °C 30.07 in /  1018.2 hPa SW 10.1 mph /  16.3 km/h 14 mph /  22.5 km/h 73 % 0 in /  0 mm
05:09 51.8 °F /  11 °C 43 °F /  6.1 °C 30.08 in /  1018.5 hPa SW 11 mph /  17.7 km/h 12 mph /  19.3 km/h 72 % 0 in /  0 mm
05:14 51.3 °F /  10.7 °C 43.3 °F /  6.3 °C 30.08 in /  1018.5 hPa SSW 8.1 mph /  13 km/h 13 mph /  20.9 km/h 74 % 0 in /  0 mm
05:19 50.5 °F /  10.3 °C 43.3 °F /  6.3 °C 30.08 in /  1018.5 hPa SW 6.9 mph /  11.1 km/h 11 mph /  17.7 km/h 76 % 0 in /  0 mm
05:24 50.7 °F /  10.4 °C 42.4 °F /  5.8 °C 30.08 in /  1018.5 hPa SSE 6 mph /  9.7 km/h 11 mph /  17.7 km/h 73 % 0 in /  0 mm
05:29 51.4 °F /  10.8 °C 42.8 °F /  6 °C 30.08 in /  1018.5 hPa SW 11 mph /  17.7 km/h 11 mph /  17.7 km/h 72 % 0 in /  0 mm
05:34 51.3 °F /  10.7 °C 43 °F /  6.1 °C 30.08 in /  1018.5 hPa South 4.9 mph /  7.9 km/h 11 mph /  17.7 km/h 73 % 0 in /  0 mm
05:39 51.1 °F /  10.6 °C 42.8 °F /  6 °C 30.08 in /  1018.5 hPa SSW 8.1 mph /  13 km/h 11 mph /  17.7 km/h 73 % 0 in /  0 mm
05:44 50.7 °F /  10.4 °C 42.8 °F /  6 °C 30.08 in /  1018.5 hPa SSE 4.9 mph /  7.9 km/h 10 mph /  16.1 km/h 74 % 0 in /  0 mm
05:49 50.5 °F /  10.3 °C 42.6 °F /  5.9 °C 30.08 in /  1018.5 hPa SW 8.9 mph /  14.3 km/h 9 mph /  14.5 km/h 74 % 0 in /  0 mm
05:54 51.1 °F /  10.6 °C 42.8 °F /  6 °C 30.08 in /  1018.5 hPa SW 6.9 mph /  11.1 km/h 10 mph /  16.1 km/h 73 % 0 in /  0 mm
05:59 51.3 °F /  10.7 °C 42.6 °F /  5.9 °C 30.08 in /  1018.5 hPa SW 6.9 mph /  11.1 km/h 9 mph /  14.5 km/h 72 % 0 in /  0 mm
06:04 51.3 °F /  10.7 °C 42.6 °F /  5.9 °C 30.08 in /  1018.5 hPa SSW 8.9 mph /  14.3 km/h 11 mph /  17.7 km/h 72 % 0 in /  0 mm
06:09 51.1 °F /  10.6 °C 42.4 °F /  5.8 °C 30.08 in /  1018.5 hPa SW 4.9 mph /  7.9 km/h 10 mph /  16.1 km/h 72 % 0 in /  0 mm
06:14 50.7 °F /  10.4 °C 42.4 °F /  5.8 °C 30.08 in /  1018.5 hPa SW 6.9 mph /  11.1 km/h 11 mph /  17.7 km/h 73 % 0 in /  0 mm
06:19 50.4 °F /  10.2 °C 42.4 °F /  5.8 °C 30.08 in /  1018.5 hPa SW 6.9 mph /  11.1 km/h 9 mph /  14.5 km/h 74 % 0 in /  0 mm
06:24 50.4 °F /  10.2 °C 42.1 °F /  5.6 °C 30.09 in /  1018.8 hPa SW 6.9 mph /  11.1 km/h 11 mph /  17.7 km/h 73 % 0 in /  0 mm
06:29 50.7 °F /  10.4 °C 42.1 °F /  5.6 °C 30.09 in /  1018.8 hPa SSW 6 mph /  9.7 km/h 10 mph /  16.1 km/h 72 % 0 in /  0 mm
06:34 51.6 °F /  10.9 °C 42.1 °F /  5.6 °C 30.09 in /  1018.8 hPa SW 6.9 mph /  11.1 km/h 8 mph /  12.9 km/h 70 % 0 in /  0 mm
06:39 52 °F /  11.1 °C 42.1 °F /  5.6 °C 30.09 in /  1018.8 hPa SW 6.9 mph /  11.1 km/h 8 mph /  12.9 km/h 69 % 0 in /  0 mm
06:44 52.2 °F /  11.2 °C 41.9 °F /  5.5 °C 30.09 in /  1018.8 hPa SW 8.1 mph /  13 km/h 9 mph /  14.5 km/h 68 % 0 in /  0 mm
06:49 52.7 °F /  11.5 °C 42.1 °F /  5.6 °C 30.09 in /  1018.8 hPa SW 6.9 mph /  11.1 km/h 8 mph /  12.9 km/h 67 % 0 in /  0 mm
06:54 52.9 °F /  11.6 °C 42.3 °F /  5.7 °C 30.09 in /  1018.8 hPa SW 6 mph /  9.7 km/h 10 mph /  16.1 km/h 67 % 0 in /  0 mm
06:59 52.9 °F /  11.6 °C 42.3 °F /  5.7 °C 30.09 in /  1018.8 hPa SSW 6.9 mph /  11.1 km/h 9 mph /  14.5 km/h 67 % 0 in /  0 mm
07:04 53.2 °F /  11.8 °C 42.3 °F /  5.7 °C 30.09 in /  1018.8 hPa WSW 4.9 mph /  7.9 km/h 8 mph /  12.9 km/h 66 % 0 in /  0 mm
07:09 54 °F /  12.2 °C 42.4 °F /  5.8 °C 30.09 in /  1018.8 hPa SW 6.9 mph /  11.1 km/h 9 mph /  14.5 km/h 65 % 0 in /  0 mm
07:14 54.9 °F /  12.7 °C 42.4 °F /  5.8 °C 30.09 in /  1018.8 hPa SW 2.9 mph /  4.7 km/h 6 mph /  9.7 km/h 63 % 0 in /  0 mm
07:19 55 °F /  12.8 °C 42.3 °F /  5.7 °C 30.09 in /  1018.8 hPa SW 2.9 mph /  4.7 km/h 6 mph /  9.7 km/h 62 % 0 in /  0 mm
07:24 55.8 °F /  13.2 °C 42.4 °F /  5.8 °C 30.09 in /  1018.8 hPa SE 2.9 mph /  4.7 km/h 5 mph /  8 km/h 61 % 0 in /  0 mm
07:29 56.3 °F /  13.5 °C 43 °F /  6.1 °C 30.09 in /  1018.8 hPa SSE 2.9 mph /  4.7 km/h 5 mph /  8 km/h 61 % 0 in /  0 mm
07:34 56.8 °F /  13.8 °C 43.2 °F /  6.2 °C 30.09 in /  1018.8 hPa SSW 4.9 mph /  7.9 km/h 5 mph /  8 km/h 60 % 0 in /  0 mm
07:39 57.2 °F /  14 °C 43 °F /  6.1 °C 30.09 in /  1018.8 hPa SW 6.9 mph /  11.1 km/h 7 mph /  11.3 km/h 59 % 0 in /  0 mm
07:44 57.4 °F /  14.1 °C 42.8 °F /  6 °C 30.09 in /  1018.8 hPa SW 4.9 mph /  7.9 km/h 7 mph /  11.3 km/h 58 % 0 in /  0 mm
07:49 58.1 °F /  14.5 °C 43.3 °F /  6.3 °C 30.09 in /  1018.8 hPa SSW 2.9 mph /  4.7 km/h 5 mph /  8 km/h 58 % 0 in /  0 mm
07:54 59 °F /  15 °C 43.7 °F /  6.5 °C 30.09 in /  1018.8 hPa SW 2 mph /  3.2 km/h 5 mph /  8 km/h 57 % 0 in /  0 mm
07:59 59.5 °F /  15.3 °C 43.9 °F /  6.6 °C 30.09 in /  1018.8 hPa West 2.9 mph /  4.7 km/h 4 mph /  6.4 km/h 56 % 0 in /  0 mm
08:04 60.3 °F /  15.7 °C 44.1 °F /  6.7 °C 30.09 in /  1018.8 hPa SSW 2 mph /  3.2 km/h 3 mph /  4.8 km/h 55 % 0 in /  0 mm
08:09 61.3 °F /  16.3 °C 44.6 °F /  7 °C 30.09 in /  1018.8 hPa SSW 2 mph /  3.2 km/h 4 mph /  6.4 km/h 54 % 0 in /  0 mm
08:14 62.6 °F /  17 °C 44.8 °F /  7.1 °C 30.09 in /  1018.8 hPa SE 2.9 mph /  4.7 km/h 3 mph /  4.8 km/h 52 % 0 in /  0 mm
08:19 64 °F /  17.8 °C 45 °F /  7.2 °C 30.09 in /  1018.8 hPa Calm   2 mph /  3.2 km/h 50 % 0 in /  0 mm
08:24 65.3 °F /  18.5 °C 45.1 °F /  7.3 °C 30.09 in /  1018.8 hPa SW 2 mph /  3.2 km/h 3 mph /  4.8 km/h 48 % 0 in /  0 mm
08:29 66.4 °F /  19.1 °C 47.1 °F /  8.4 °C 30.09 in /  1018.8 hPa ENE 2 mph /  3.2 km/h 4 mph /  6.4 km/h 50 % 0 in /  0 mm
08:34 67.3 °F /  19.6 °C 47.5 °F /  8.6 °C 30.09 in /  1018.8 hPa ENE 0.9 mph /  1.4 km/h 2 mph /  3.2 km/h 49 % 0 in /  0 mm
08:39 68.7 °F /  20.4 °C 46.6 °F /  8.1 °C 30.09 in /  1018.8 hPa Calm   1 mph /  1.6 km/h 45 % 0 in /  0 mm
08:44 69.4 °F /  20.8 °C 46 °F /  7.8 °C 30.09 in /  1018.8 hPa Calm   1 mph /  1.6 km/h 43 % 0 in /  0 mm
08:49 69.6 °F /  20.9 °C 45 °F /  7.2 °C 30.08 in /  1018.5 hPa SW 0.9 mph /  1.4 km/h 2 mph /  3.2 km/h 41 % 0 in /  0 mm
08:54 69.6 °F /  20.9 °C 45 °F /  7.2 °C 30.08 in /  1018.5 hPa Calm   1 mph /  1.6 km/h 41 % 0 in /  0 mm
08:59 70.9 °F /  21.6 °C 46 °F /  7.8 °C 30.08 in /  1018.5 hPa Calm   3 mph /  4.8 km/h 41 % 0 in /  0 mm
09:04 72 °F /  22.2 °C 46.9 °F /  8.3 °C 30.08 in /  1018.5 hPa ENE 4 mph /  6.4 km/h 4 mph /  6.4 km/h 41 % 0 in /  0 mm
09:09 72.3 °F /  22.4 °C 46.6 °F /  8.1 °C 30.08 in /  1018.5 hPa ENE 2.9 mph /  4.7 km/h 5 mph /  8 km/h 40 % 0 in /  0 mm
09:14 72.3 °F /  22.4 °C 46 °F /  7.8 °C 30.07 in /  1018.2 hPa ENE 2 mph /  3.2 km/h 5 mph /  8 km/h 39 % 0 in /  0 mm
09:19 72 °F /  22.2 °C 45 °F /  7.2 °C 30.08 in /  1018.5 hPa East 2.9 mph /  4.7 km/h 7 mph /  11.3 km/h 38 % 0 in /  0 mm
09:24 72 °F /  22.2 °C 45.7 °F /  7.6 °C 30.07 in /  1018.2 hPa NNE 4 mph /  6.4 km/h 7 mph /  11.3 km/h 39 % 0 in /  0 mm
09:29 72.5 °F /  22.5 °C 45.5 °F /  7.5 °C 30.07 in /  1018.2 hPa NE 2.9 mph /  4.7 km/h 8 mph /  12.9 km/h 38 % 0 in /  0 mm
09:34 72.1 °F /  22.3 °C 46.4 °F /  8 °C 30.07 in /  1018.2 hPa ENE 4.9 mph /  7.9 km/h 10 mph /  16.1 km/h 40 % 0 in /  0 mm
09:39 72.5 °F /  22.5 °C 46.8 °F /  8.2 °C 30.07 in /  1018.2 hPa ENE 4.9 mph /  7.9 km/h 7 mph /  11.3 km/h 40 % 0 in /  0 mm
09:44 72.7 °F /  22.6 °C 46.2 °F /  7.9 °C 30.07 in /  1018.2 hPa ENE 6.9 mph /  11.1 km/h 11 mph /  17.7 km/h 39 % 0 in /  0 mm
09:49 73 °F /  22.8 °C 46.6 °F /  8.1 °C 30.07 in /  1018.2 hPa NE 6.9 mph /  11.1 km/h 8 mph /  12.9 km/h 39 % 0 in /  0 mm
09:54 73.4 °F /  23 °C 46.2 °F /  7.9 °C 30.07 in /  1018.2 hPa NE 8.9 mph /  14.3 km/h 11 mph /  17.7 km/h 38 % 0 in /  0 mm
09:59 73 °F /  22.8 °C 46.6 °F /  8.1 °C 30.07 in /  1018.2 hPa ENE 4 mph /  6.4 km/h 8 mph /  12.9 km/h 39 % 0 in /  0 mm
10:04 73.9 °F /  23.3 °C 46.8 °F /  8.2 °C 30.07 in /  1018.2 hPa NNE 8.9 mph /  14.3 km/h 12 mph /  19.3 km/h 38 % 0 in /  0 mm
10:09 73.6 °F /  23.1 °C 47.1 °F /  8.4 °C 30.06 in /  1017.8 hPa NE 6 mph /  9.7 km/h 13 mph /  20.9 km/h 39 % 0 in /  0 mm
10:14 74.5 °F /  23.6 °C 47.8 °F /  8.8 °C 30.06 in /  1017.8 hPa East 4.9 mph /  7.9 km/h 14 mph /  22.5 km/h 39 % 0 in /  0 mm
10:19 74.7 °F /  23.7 °C 48 °F /  8.9 °C 30.06 in /  1017.8 hPa ENE 10.1 mph /  16.3 km/h 13 mph /  20.9 km/h 39 % 0 in /  0 mm
10:24 74.5 °F /  23.6 °C 47.1 °F /  8.4 °C 30.06 in /  1017.8 hPa ENE 13 mph /  20.9 km/h 14 mph /  22.5 km/h 38 % 0 in /  0 mm
10:29 74.5 °F /  23.6 °C 47.8 °F /  8.8 °C 30.06 in /  1017.8 hPa East 6 mph /  9.7 km/h 11 mph /  17.7 km/h 39 % 0 in /  0 mm
10:34 74.8 °F /  23.8 °C 46 °F /  7.8 °C 30.06 in /  1017.8 hPa ENE 16.1 mph /  25.9 km/h 18 mph /  29 km/h 36 % 0 in /  0 mm
10:39 74.1 °F /  23.4 °C 46.2 °F /  7.9 °C 30.06 in /  1017.8 hPa ENE 14.1 mph /  22.7 km/h 16 mph /  25.7 km/h 37 % 0 in /  0 mm
10:44 73.9 °F /  23.3 °C 44.6 °F /  7 °C 30.06 in /  1017.8 hPa ENE 8.9 mph /  14.3 km/h 17 mph /  27.4 km/h 35 % 0 in /  0 mm
10:49 73.8 °F /  23.2 °C 45.1 °F /  7.3 °C 30.06 in /  1017.8 hPa ENE 12.1 mph /  19.5 km/h 17 mph /  27.4 km/h 36 % 0 in /  0 mm
10:54 73.9 °F /  23.3 °C 46 °F /  7.8 °C 30.05 in /  1017.5 hPa ENE 8.1 mph /  13 km/h 15 mph /  24.1 km/h 37 % 0 in /  0 mm
10:59 73.8 °F /  23.2 °C 43.7 °F /  6.5 °C 30.06 in /  1017.8 hPa NE 13 mph /  20.9 km/h 24 mph /  38.6 km/h 34 % 0 in /  0 mm
11:04 73.8 °F /  23.2 °C 45.1 °F /  7.3 °C 30.05 in /  1017.5 hPa ENE 17.9 mph /  28.8 km/h 20 mph /  32.2 km/h 36 % 0 in /  0 mm
11:09 73.4 °F /  23 °C 45.5 °F /  7.5 °C 30.05 in /  1017.5 hPa ENE 17 mph /  27.4 km/h 21 mph /  33.8 km/h 37 % 0 in /  0 mm
11:14 73 °F /  22.8 °C 44.4 °F /  6.9 °C 30.05 in /  1017.5 hPa NE 11 mph /  17.7 km/h 20 mph /  32.2 km/h 36 % 0 in /  0 mm
11:19 73.2 °F /  22.9 °C 46 °F /  7.8 °C 30.05 in /  1017.5 hPa East 15 mph /  24.1 km/h 23 mph /  37 km/h 38 % 0 in /  0 mm
11:24 73.2 °F /  22.9 °C 45.3 °F /  7.4 °C 30.05 in /  1017.5 hPa ENE 16.1 mph /  25.9 km/h 20 mph /  32.2 km/h 37 % 0 in /  0 mm
11:29 74.5 °F /  23.6 °C 45.9 °F /  7.7 °C 30.04 in /  1017.2 hPa ENE 6.9 mph /  11.1 km/h 11 mph /  17.7 km/h 36 % 0 in /  0 mm
11:34 74.3 °F /  23.5 °C 44.1 °F /  6.7 °C 30.04 in /  1017.2 hPa ENE 13 mph /  20.9 km/h 20 mph /  32.2 km/h 34 % 0 in /  0 mm
11:39 74.7 °F /  23.7 °C 45.9 °F /  7.7 °C 30.04 in /  1017.2 hPa NE 6.9 mph /  11.1 km/h 12 mph /  19.3 km/h 36 % 0 in /  0 mm
11:44 76.5 °F /  24.7 °C 46 °F /  7.8 °C 30.04 in /  1017.2 hPa ENE 12.1 mph /  19.5 km/h 16 mph /  25.7 km/h 34 % 0 in /  0 mm
11:49 76.5 °F /  24.7 °C 44.4 °F /  6.9 °C 30.04 in /  1017.2 hPa NE 10.1 mph /  16.3 km/h 12 mph /  19.3 km/h 32 % 0 in /  0 mm
11:54 75.9 °F /  24.4 °C 44.8 °F /  7.1 °C 30.04 in /  1017.2 hPa ENE 8.9 mph /  14.3 km/h 10 mph /  16.1 km/h 33 % 0 in /  0 mm
11:59 75 °F /  23.9 °C 44.8 °F /  7.1 °C 30.04 in /  1017.2 hPa ENE 6 mph /  9.7 km/h 17 mph /  27.4 km/h 34 % 0 in /  0 mm
12:04 76.3 °F /  24.6 °C 45.1 °F /  7.3 °C 30.04 in /  1017.2 hPa NE 8.9 mph /  14.3 km/h 10 mph /  16.1 km/h 33 % 0 in /  0 mm
12:09 76.1 °F /  24.5 °C 44.1 °F /  6.7 °C 30.03 in /  1016.8 hPa ENE 8.1 mph /  13 km/h 18 mph /  29 km/h 32 % 0 in /  0 mm
12:14 75.7 °F /  24.3 °C 45.3 °F /  7.4 °C 30.04 in /  1017.2 hPa ENE 6.9 mph /  11.1 km/h 13 mph /  20.9 km/h 34 % 0 in /  0 mm
12:19 76.8 °F /  24.9 °C 46.4 °F /  8 °C 30.03 in /  1016.8 hPa ENE 11 mph /  17.7 km/h 16 mph /  25.7 km/h 34 % 0 in /  0 mm
12:24 77 °F /  25 °C 45.7 °F /  7.6 °C 30.03 in /  1016.8 hPa ENE 16.1 mph /  25.9 km/h 18 mph /  29 km/h 33 % 0 in /  0 mm
12:29 75.4 °F /  24.1 °C 49.5 °F /  9.7 °C 30.03 in /  1016.8 hPa ENE 21 mph /  33.8 km/h 22 mph /  35.4 km/h 40 % 0 in /  0 mm
12:34 73.6 °F /  23.1 °C 47.8 °F /  8.8 °C 30.04 in /  1017.2 hPa NE 12.1 mph /  19.5 km/h 17 mph /  27.4 km/h 40 % 0 in /  0 mm
12:39 73.2 °F /  22.9 °C 48.7 °F /  9.3 °C 30.03 in /  1016.8 hPa ENE 19.9 mph /  32 km/h 24 mph /  38.6 km/h 42 % 0 in /  0 mm
12:44 73 °F /  22.8 °C 48 °F /  8.9 °C 30.03 in /  1016.8 hPa ENE 8.9 mph /  14.3 km/h 18 mph /  29 km/h 41 % 0 in /  0 mm
12:49 73.6 °F /  23.1 °C 48.4 °F /  9.1 °C 30.03 in /  1016.8 hPa ENE 15 mph /  24.1 km/h 18 mph /  29 km/h 41 % 0 in /  0 mm
12:54 73.8 °F /  23.2 °C 48.6 °F /  9.2 °C 30.03 in /  1016.8 hPa NE 13 mph /  20.9 km/h 21 mph /  33.8 km/h 41 % 0 in /  0 mm
12:59 74.3 °F /  23.5 °C 47.7 °F /  8.7 °C 30.03 in /  1016.8 hPa ENE 4 mph /  6.4 km/h 10 mph /  16.1 km/h 39 % 0 in /  0 mm
13:04 74.8 °F /  23.8 °C 48.2 °F /  9 °C 30.03 in /  1016.8 hPa ENE 17 mph /  27.4 km/h 18 mph /  29 km/h 39 % 0 in /  0 mm
13:09 75.2 °F /  24 °C 47.8 °F /  8.8 °C 30.03 in /  1016.8 hPa East 12.1 mph /  19.5 km/h 15 mph /  24.1 km/h 38 % 0 in /  0 mm
13:14 75.9 °F /  24.4 °C 47.8 °F /  8.8 °C 30.03 in /  1016.8 hPa ENE 8.1 mph /  13 km/h 16 mph /  25.7 km/h 37 % 0 in /  0 mm
13:19 75.4 °F /  24.1 °C 48 °F /  8.9 °C 30.02 in /  1016.5 hPa NE 6.9 mph /  11.1 km/h 22 mph /  35.4 km/h 38 % 0 in /  0 mm
13:24 74.7 °F /  23.7 °C 48 °F /  8.9 °C 30.02 in /  1016.5 hPa East 10.1 mph /  16.3 km/h 12 mph /  19.3 km/h 39 % 0 in /  0 mm
13:29 75.4 °F /  24.1 °C 47.3 °F /  8.5 °C 30.02 in /  1016.5 hPa ENE 10.1 mph /  16.3 km/h 15 mph /  24.1 km/h 37 % 0 in /  0 mm
13:34 75.9 °F /  24.4 °C 47.8 °F /  8.8 °C 30.02 in /  1016.5 hPa East 10.1 mph /  16.3 km/h 12 mph /  19.3 km/h 37 % 0 in /  0 mm
13:39 75.7 °F /  24.3 °C 47.7 °F /  8.7 °C 30.02 in /  1016.5 hPa ENE 14.1 mph /  22.7 km/h 19 mph /  30.6 km/h 37 % 0 in /  0 mm
13:44 76.3 °F /  24.6 °C 47.3 °F /  8.5 °C 30.02 in /  1016.5 hPa ENE 13 mph /  20.9 km/h 17 mph /  27.4 km/h 36 % 0 in /  0 mm
13:49 75 °F /  23.9 °C 46.2 °F /  7.9 °C 30.02 in /  1016.5 hPa ENE 8.1 mph /  13 km/h 19 mph /  30.6 km/h 36 % 0 in /  0 mm
13:54 75.4 °F /  24.1 °C 46.6 °F /  8.1 °C 30.02 in /  1016.5 hPa North 8.9 mph /  14.3 km/h 15 mph /  24.1 km/h 36 % 0 in /  0 mm
13:59 75.7 °F /  24.3 °C 45.3 °F /  7.4 °C 30.01 in /  1016.1 hPa NE 6.9 mph /  11.1 km/h 16 mph /  25.7 km/h 34 % 0 in /  0 mm
14:04 76.5 °F /  24.7 °C 46 °F /  7.8 °C 30.02 in /  1016.5 hPa East 17 mph /  27.4 km/h 17 mph /  27.4 km/h 34 % 0 in /  0 mm
14:09 76.8 °F /  24.9 °C 45.5 °F /  7.5 °C 30.01 in /  1016.1 hPa ENE 8.9 mph /  14.3 km/h 14 mph /  22.5 km/h 33 % 0 in /  0 mm
14:14 75.9 °F /  24.4 °C 45.5 °F /  7.5 °C 30.01 in /  1016.1 hPa ENE 8.1 mph /  13 km/h 16 mph /  25.7 km/h 34 % 0 in /  0 mm
14:19 75.7 °F /  24.3 °C 46.2 °F /  7.9 °C 30.01 in /  1016.1 hPa ENE 11 mph /  17.7 km/h 13 mph /  20.9 km/h 35 % 0 in /  0 mm
14:24 75.6 °F /  24.2 °C 46.8 °F /  8.2 °C 30.01 in /  1016.1 hPa ENE 17 mph /  27.4 km/h 28 mph /  45.1 km/h 36 % 0 in /  0 mm
14:29 75.4 °F /  24.1 °C 46.6 °F /  8.1 °C 30.01 in /  1016.1 hPa ENE 14.1 mph /  22.7 km/h 21 mph /  33.8 km/h 36 % 0 in /  0 mm
14:34 75.6 °F /  24.2 °C 46.8 °F /  8.2 °C 30.01 in /  1016.1 hPa ENE 10.1 mph /  16.3 km/h 15 mph /  24.1 km/h 36 % 0 in /  0 mm
14:39 75.6 °F /  24.2 °C 46 °F /  7.8 °C 30.01 in /  1016.1 hPa ENE 6.9 mph /  11.1 km/h 16 mph /  25.7 km/h 35 % 0 in /  0 mm
14:44 75.6 °F /  24.2 °C 46 °F /  7.8 °C 30.01 in /  1016.1 hPa ENE 6 mph /  9.7 km/h 10 mph /  16.1 km/h 35 % 0 in /  0 mm
14:49 76.5 °F /  24.7 °C 45.1 °F /  7.3 °C 30.01 in /  1016.1 hPa NNE 13 mph /  20.9 km/h 19 mph /  30.6 km/h 33 % 0 in /  0 mm
14:54 76.5 °F /  24.7 °C 45.1 °F /  7.3 °C 30.01 in /  1016.1 hPa NE 10.1 mph /  16.3 km/h 14 mph /  22.5 km/h 33 % 0 in /  0 mm
14:59 76.3 °F /  24.6 °C 45.1 °F /  7.3 °C 30.01 in /  1016.1 hPa NE 4 mph /  6.4 km/h 6 mph /  9.7 km/h 33 % 0 in /  0 mm
15:04 77.5 °F /  25.3 °C 46.9 °F /  8.3 °C 30.01 in /  1016.1 hPa ENE 14.1 mph /  22.7 km/h 15 mph /  24.1 km/h 34 % 0 in /  0 mm
15:09 77.2 °F /  25.1 °C 46.6 °F /  8.1 °C 30.00 in /  1015.8 hPa ENE 8.1 mph /  13 km/h 11 mph /  17.7 km/h 34 % 0 in /  0 mm
15:14 76.8 °F /  24.9 °C 45.5 °F /  7.5 °C 30.00 in /  1015.8 hPa East 10.1 mph /  16.3 km/h 17 mph /  27.4 km/h 33 % 0 in /  0 mm
15:19 77 °F /  25 °C 45 °F /  7.2 °C 30.00 in /  1015.8 hPa ENE 11 mph /  17.7 km/h 19 mph /  30.6 km/h 32 % 0 in /  0 mm
15:24 76.3 °F /  24.6 °C 44.2 °F /  6.8 °C 30.00 in /  1015.8 hPa East 13 mph /  20.9 km/h 15 mph /  24.1 km/h 32 % 0 in /  0 mm
15:29 76.8 °F /  24.9 °C 45.5 °F /  7.5 °C 30.00 in /  1015.8 hPa ENE 8.1 mph /  13 km/h 16 mph /  25.7 km/h 33 % 0 in /  0 mm
15:34 76.5 °F /  24.7 °C 45.1 °F /  7.3 °C 30.01 in /  1016.1 hPa NE 6 mph /  9.7 km/h 9 mph /  14.5 km/h 33 % 0 in /  0 mm
15:39 76.8 °F /  24.9 °C 44.8 °F /  7.1 °C 30.00 in /  1015.8 hPa NE 11 mph /  17.7 km/h 12 mph /  19.3 km/h 32 % 0 in /  0 mm
15:44 76.6 °F /  24.8 °C 44.6 °F /  7 °C 30.00 in /  1015.8 hPa ENE 11 mph /  17.7 km/h 19 mph /  30.6 km/h 32 % 0 in /  0 mm
15:49 76.3 °F /  24.6 °C 45.1 °F /  7.3 °C 30.00 in /  1015.8 hPa ENE 13 mph /  20.9 km/h 15 mph /  24.1 km/h 33 % 0 in /  0 mm
15:54 76.3 °F /  24.6 °C 43.3 °F /  6.3 °C 30.00 in /  1015.8 hPa NNW 2.9 mph /  4.7 km/h 11 mph /  17.7 km/h 31 % 0 in /  0 mm
15:59 76.6 °F /  24.8 °C 45.3 °F /  7.4 °C 30.00 in /  1015.8 hPa NE 6 mph /  9.7 km/h 6 mph /  9.7 km/h 33 % 0 in /  0 mm
16:04 77.2 °F /  25.1 °C 45.9 °F /  7.7 °C 29.99 in /  1015.5 hPa ENE 6 mph /  9.7 km/h 18 mph /  29 km/h 33 % 0 in /  0 mm
16:09 77.5 °F /  25.3 °C 46.2 °F /  7.9 °C 30.00 in /  1015.8 hPa ENE 0.9 mph /  1.4 km/h 16 mph /  25.7 km/h 33 % 0 in /  0 mm
16:14 77.2 °F /  25.1 °C 45 °F /  7.2 °C 29.99 in /  1015.5 hPa NNE 14.1 mph /  22.7 km/h 17 mph /  27.4 km/h 32 % 0 in /  0 mm
16:19 75.9 °F /  24.4 °C 43.9 °F /  6.6 °C 29.99 in /  1015.5 hPa ENE 14.1 mph /  22.7 km/h 21 mph /  33.8 km/h 32 % 0 in /  0 mm
16:24 76.3 °F /  24.6 °C 43.3 °F /  6.3 °C 29.99 in /  1015.5 hPa ENE 17 mph /  27.4 km/h 19 mph /  30.6 km/h 31 % 0 in /  0 mm
16:29 76.3 °F /  24.6 °C 42.6 °F /  5.9 °C 29.99 in /  1015.5 hPa East 4 mph /  6.4 km/h 9 mph /  14.5 km/h 30 % 0 in /  0 mm
16:34 76.6 °F /  24.8 °C 44.6 °F /  7 °C 29.99 in /  1015.5 hPa ENE 8.1 mph /  13 km/h 15 mph /  24.1 km/h 32 % 0 in /  0 mm
16:39 77.2 °F /  25.1 °C 44.2 °F /  6.8 °C 29.99 in /  1015.5 hPa NE 14.1 mph /  22.7 km/h 19 mph /  30.6 km/h 31 % 0 in /  0 mm
16:44 76.5 °F /  24.7 °C 42.8 °F /  6 °C 29.99 in /  1015.5 hPa ENE 13 mph /  20.9 km/h 22 mph /  35.4 km/h 30 % 0 in /  0 mm
16:49 76.8 °F /  24.9 °C 43.9 °F /  6.6 °C 29.99 in /  1015.5 hPa ENE 10.1 mph /  16.3 km/h 18 mph /  29 km/h 31 % 0 in /  0 mm
16:54 76.6 °F /  24.8 °C 44.6 °F /  7 °C 30.00 in /  1015.8 hPa ENE 0.9 mph /  1.4 km/h 10 mph /  16.1 km/h 32 % 0 in /  0 mm
16:59 77 °F /  25 °C 45 °F /  7.2 °C 29.99 in /  1015.5 hPa NE 2 mph /  3.2 km/h 5 mph /  8 km/h 32 % 0 in /  0 mm
17:04 76.8 °F /  24.9 °C 42.1 °F /  5.6 °C 29.99 in /  1015.5 hPa NE 10.1 mph /  16.3 km/h 19 mph /  30.6 km/h 29 % 0 in /  0 mm
17:09 76.3 °F /  24.6 °C 43.3 °F /  6.3 °C 29.99 in /  1015.5 hPa North 4 mph /  6.4 km/h 11 mph /  17.7 km/h 31 % 0 in /  0 mm
17:14 76.5 °F /  24.7 °C 44.4 °F /  6.9 °C 29.99 in /  1015.5 hPa East 4.9 mph /  7.9 km/h 9 mph /  14.5 km/h 32 % 0 in /  0 mm
17:19 77.2 °F /  25.1 °C 45 °F /  7.2 °C 29.99 in /  1015.5 hPa NE 6 mph /  9.7 km/h 10 mph /  16.1 km/h 32 % 0 in /  0 mm
17:24 77.2 °F /  25.1 °C 45 °F /  7.2 °C 29.98 in /  1015.1 hPa ENE 12.1 mph /  19.5 km/h 19 mph /  30.6 km/h 32 % 0 in /  0 mm
17:29 76.8 °F /  24.9 °C 44.8 °F /  7.1 °C 29.99 in /  1015.5 hPa NE 13 mph /  20.9 km/h 15 mph /  24.1 km/h 32 % 0 in /  0 mm
17:34 76.5 °F /  24.7 °C 45.1 °F /  7.3 °C 29.99 in /  1015.5 hPa East 6 mph /  9.7 km/h 20 mph /  32.2 km/h 33 % 0 in /  0 mm
17:39 76.1 °F /  24.5 °C 45 °F /  7.2 °C 29.99 in /  1015.5 hPa NNE 8.9 mph /  14.3 km/h 14 mph /  22.5 km/h 33 % 0 in /  0 mm
17:44 76.3 °F /  24.6 °C 45.1 °F /  7.3 °C 29.99 in /  1015.5 hPa NNW 0.9 mph /  1.4 km/h 3 mph /  4.8 km/h 33 % 0 in /  0 mm
17:49 76.6 °F /  24.8 °C 45.3 °F /  7.4 °C 29.99 in /  1015.5 hPa East 8.9 mph /  14.3 km/h 13 mph /  20.9 km/h 33 % 0 in /  0 mm
17:54 76.5 °F /  24.7 °C 46 °F /  7.8 °C 29.99 in /  1015.5 hPa NE 13 mph /  20.9 km/h 21 mph /  33.8 km/h 34 % 0 in /  0 mm
17:59 75.9 °F /  24.4 °C 46.2 °F /  7.9 °C 29.99 in /  1015.5 hPa ENE 15 mph /  24.1 km/h 20 mph /  32.2 km/h 35 % 0 in /  0 mm
18:04 75.9 °F /  24.4 °C 46.2 °F /  7.9 °C 29.99 in /  1015.5 hPa ENE 13 mph /  20.9 km/h 18 mph /  29 km/h 35 % 0 in /  0 mm
18:09 75.6 °F /  24.2 °C 46 °F /  7.8 °C 29.99 in /  1015.5 hPa NE 6.9 mph /  11.1 km/h 19 mph /  30.6 km/h 35 % 0 in /  0 mm
18:14 75.4 °F /  24.1 °C 45.9 °F /  7.7 °C 29.99 in /  1015.5 hPa NE 6 mph /  9.7 km/h 17 mph /  27.4 km/h 35 % 0 in /  0 mm
18:19 75.7 °F /  24.3 °C 45.3 °F /  7.4 °C 29.99 in /  1015.5 hPa ENE 13 mph /  20.9 km/h 16 mph /  25.7 km/h 34 % 0 in /  0 mm
18:24 76.1 °F /  24.5 °C 45 °F /  7.2 °C 29.99 in /  1015.5 hPa NE 6.9 mph /  11.1 km/h 11 mph /  17.7 km/h 33 % 0 in /  0 mm
18:29 75.7 °F /  24.3 °C 45.3 °F /  7.4 °C 29.99 in /  1015.5 hPa ENE 11 mph /  17.7 km/h 13 mph /  20.9 km/h 34 % 0 in /  0 mm
18:34 75.6 °F /  24.2 °C 45.1 °F /  7.3 °C 29.99 in /  1015.5 hPa East 6 mph /  9.7 km/h 11 mph /  17.7 km/h 34 % 0 in /  0 mm
18:39 75.7 °F /  24.3 °C 46.2 °F /  7.9 °C 29.99 in /  1015.5 hPa North 4.9 mph /  7.9 km/h 13 mph /  20.9 km/h 35 % 0 in /  0 mm
18:44 75.6 °F /  24.2 °C 46 °F /  7.8 °C 29.99 in /  1015.5 hPa ENE 13 mph /  20.9 km/h 13 mph /  20.9 km/h 35 % 0 in /  0 mm
18:49 75.4 °F /  24.1 °C 45.9 °F /  7.7 °C 29.99 in /  1015.5 hPa ENE 8.1 mph /  13 km/h 11 mph /  17.7 km/h 35 % 0 in /  0 mm
18:54 75 °F /  23.9 °C 45.5 °F /  7.5 °C 29.99 in /  1015.5 hPa ENE 6 mph /  9.7 km/h 9 mph /  14.5 km/h 35 % 0 in /  0 mm
18:59 74.7 °F /  23.7 °C 45.9 °F /  7.7 °C 29.99 in /  1015.5 hPa ENE 17.9 mph /  28.8 km/h 18 mph /  29 km/h 36 % 0 in /  0 mm
19:04 74.7 °F /  23.7 °C 45.9 °F /  7.7 °C 29.99 in /  1015.5 hPa ENE 10.1 mph /  16.3 km/h 14 mph /  22.5 km/h 36 % 0 in /  0 mm
19:09 74.7 °F /  23.7 °C 45.9 °F /  7.7 °C 29.99 in /  1015.5 hPa NE 12.1 mph /  19.5 km/h 13 mph /  20.9 km/h 36 % 0 in /  0 mm
19:14 74.5 °F /  23.6 °C 45.9 °F /  7.7 °C 30.00 in /  1015.8 hPa ENE 4.9 mph /  7.9 km/h 13 mph /  20.9 km/h 36 % 0 in /  0 mm
19:19 74.3 °F /  23.5 °C 45.7 °F /  7.6 °C 29.99 in /  1015.5 hPa ENE 6.9 mph /  11.1 km/h 8 mph /  12.9 km/h 36 % 0 in /  0 mm
19:24 74.1 °F /  23.4 °C 45.5 °F /  7.5 °C 30.00 in /  1015.8 hPa NE 6 mph /  9.7 km/h 9 mph /  14.5 km/h 36 % 0 in /  0 mm
19:29 74.1 °F /  23.4 °C 45.5 °F /  7.5 °C 30.00 in /  1015.8 hPa ENE 6.9 mph /  11.1 km/h 9 mph /  14.5 km/h 36 % 0 in /  0 mm
19:34 73.9 °F /  23.3 °C 45.3 °F /  7.4 °C 30.00 in /  1015.8 hPa ENE 8.9 mph /  14.3 km/h 9 mph /  14.5 km/h 36 % 0 in /  0 mm
19:39 73.8 °F /  23.2 °C 45.9 °F /  7.7 °C 30.00 in /  1015.8 hPa ENE 6 mph /  9.7 km/h 9 mph /  14.5 km/h 37 % 0 in /  0 mm
19:44 73.6 °F /  23.1 °C 45.7 °F /  7.6 °C 30.00 in /  1015.8 hPa ENE 4 mph /  6.4 km/h 9 mph /  14.5 km/h 37 % 0 in /  0 mm
19:49 73.2 °F /  22.9 °C 45.3 °F /  7.4 °C 30.00 in /  1015.8 hPa ENE 6 mph /  9.7 km/h 8 mph /  12.9 km/h 37 % 0 in /  0 mm
19:54 73 °F /  22.8 °C 45.1 °F /  7.3 °C 30.00 in /  1015.8 hPa ENE 6 mph /  9.7 km/h 9 mph /  14.5 km/h 37 % 0 in /  0 mm
19:59 72.9 °F /  22.7 °C 45.7 °F /  7.6 °C 30.00 in /  1015.8 hPa ENE 6.9 mph /  11.1 km/h 8 mph /  12.9 km/h 38 % 0 in /  0 mm
20:04 72.3 °F /  22.4 °C 46 °F /  7.8 °C 30.00 in /  1015.8 hPa ENE 6.9 mph /  11.1 km/h 10 mph /  16.1 km/h 39 % 0 in /  0 mm
20:09 72.1 °F /  22.3 °C 46.4 °F /  8 °C 30.00 in /  1015.8 hPa ENE 6.9 mph /  11.1 km/h 9 mph /  14.5 km/h 40 % 0 in /  0 mm
20:14 72 °F /  22.2 °C 46.4 °F /  8 °C 30.00 in /  1015.8 hPa ENE 6.9 mph /  11.1 km/h 12 mph /  19.3 km/h 40 % 0 in /  0 mm
20:19 71.6 °F /  22 °C 46.6 °F /  8.1 °C 30.01 in /  1016.1 hPa ENE 6.9 mph /  11.1 km/h 12 mph /  19.3 km/h 41 % 0 in /  0 mm
20:24 71.4 °F /  21.9 °C 47.1 °F /  8.4 °C 30.01 in /  1016.1 hPa ENE 6.9 mph /  11.1 km/h 9 mph /  14.5 km/h 42 % 0 in /  0 mm
20:29 71.1 °F /  21.7 °C 46.8 °F /  8.2 °C 30.01 in /  1016.1 hPa ENE 6 mph /  9.7 km/h 6 mph /  9.7 km/h 42 % 0 in /  0 mm
20:34 70.7 °F /  21.5 °C 47.1 °F /  8.4 °C 30.01 in /  1016.1 hPa ENE 4 mph /  6.4 km/h 5 mph /  8 km/h 43 % 0 in /  0 mm
20:39 70.3 °F /  21.3 °C 47.5 °F /  8.6 °C 30.01 in /  1016.1 hPa East 4.9 mph /  7.9 km/h 5 mph /  8 km/h 44 % 0 in /  0 mm
20:44 70 °F /  21.1 °C 47.7 °F /  8.7 °C 30.01 in /  1016.1 hPa ENE 4 mph /  6.4 km/h 6 mph /  9.7 km/h 45 % 0 in /  0 mm
20:49 69.3 °F /  20.7 °C 46.9 °F /  8.3 °C 30.02 in /  1016.5 hPa ENE 2 mph /  3.2 km/h 4 mph /  6.4 km/h 45 % 0 in /  0 mm
20:54 68.7 °F /  20.4 °C 47.1 °F /  8.4 °C 30.02 in /  1016.5 hPa ENE 2.9 mph /  4.7 km/h 4 mph /  6.4 km/h 46 % 0 in /  0 mm
20:59 68.7 °F /  20.4 °C 47.7 °F /  8.7 °C 30.02 in /  1016.5 hPa ENE 4 mph /  6.4 km/h 7 mph /  11.3 km/h 47 % 0 in /  0 mm
21:04 68.5 °F /  20.3 °C 48 °F /  8.9 °C 30.03 in /  1016.8 hPa East 2 mph /  3.2 km/h 4 mph /  6.4 km/h 48 % 0 in /  0 mm
21:09 68 °F /  20 °C 47.7 °F /  8.7 °C 30.03 in /  1016.8 hPa East 0.9 mph /  1.4 km/h 2 mph /  3.2 km/h 48 % 0 in /  0 mm
21:14 67.5 °F /  19.7 °C 46.6 °F /  8.1 °C 30.03 in /  1016.8 hPa West 0.9 mph /  1.4 km/h 2 mph /  3.2 km/h 47 % 0 in /  0 mm
21:19 66.9 °F /  19.4 °C 46.6 °F /  8.1 °C 30.04 in /  1017.2 hPa West 0.9 mph /  1.4 km/h 1 mph /  1.6 km/h 48 % 0 in /  0 mm
21:24 66.2 °F /  19 °C 46.4 °F /  8 °C 30.04 in /  1017.2 hPa SSW 2.9 mph /  4.7 km/h 4 mph /  6.4 km/h 49 % 0 in /  0 mm
21:29 66.2 °F /  19 °C 47.5 °F /  8.6 °C 30.04 in /  1017.2 hPa West 0.9 mph /  1.4 km/h 1 mph /  1.6 km/h 51 % 0 in /  0 mm
21:34 66.4 °F /  19.1 °C 48.2 °F /  9 °C 30.04 in /  1017.2 hPa West 0.9 mph /  1.4 km/h 2 mph /  3.2 km/h 52 % 0 in /  0 mm
21:39 66.4 °F /  19.1 °C 48.2 °F /  9 °C 30.04 in /  1017.2 hPa North 2.9 mph /  4.7 km/h 3 mph /  4.8 km/h 52 % 0 in /  0 mm
21:44 65.8 °F /  18.8 °C 46.2 °F /  7.9 °C 30.05 in /  1017.5 hPa SE 8.9 mph /  14.3 km/h 9 mph /  14.5 km/h 49 % 0 in /  0 mm
21:49 64.8 °F /  18.2 °C 45.7 °F /  7.6 °C 30.05 in /  1017.5 hPa SSE 6.9 mph /  11.1 km/h 7 mph /  11.3 km/h 50 % 0 in /  0 mm
21:54 64.2 °F /  17.9 °C 45.7 °F /  7.6 °C 30.05 in /  1017.5 hPa SSE 8.9 mph /  14.3 km/h 11 mph /  17.7 km/h 51 % 0 in /  0 mm
21:59 63.5 °F /  17.5 °C 45.5 °F /  7.5 °C 30.05 in /  1017.5 hPa SE 8.9 mph /  14.3 km/h 9 mph /  14.5 km/h 52 % 0 in /  0 mm
22:04 62.8 °F /  17.1 °C 45.3 °F /  7.4 °C 30.05 in /  1017.5 hPa SSE 8.1 mph /  13 km/h 10 mph /  16.1 km/h 53 % 0 in /  0 mm
22:09 62.2 °F /  16.8 °C 45.3 °F /  7.4 °C 30.05 in /  1017.5 hPa SSE 10.1 mph /  16.3 km/h 11 mph /  17.7 km/h 54 % 0 in /  0 mm
22:14 62.1 °F /  16.7 °C 45.7 °F /  7.6 °C 30.05 in /  1017.5 hPa SSW 8.1 mph /  13 km/h 9 mph /  14.5 km/h 55 % 0 in /  0 mm
22:19 62.1 °F /  16.7 °C 45.7 °F /  7.6 °C 30.05 in /  1017.5 hPa East 6.9 mph /  11.1 km/h 8 mph /  12.9 km/h 55 % 0 in /  0 mm
22:24 62.1 °F /  16.7 °C 45.7 °F /  7.6 °C 30.05 in /  1017.5 hPa SW 6.9 mph /  11.1 km/h 9 mph /  14.5 km/h 55 % 0 in /  0 mm
22:29 61.5 °F /  16.4 °C 45.1 °F /  7.3 °C 30.05 in /  1017.5 hPa SW 6.9 mph /  11.1 km/h 8 mph /  12.9 km/h 55 % 0 in /  0 mm
22:34 61.2 °F /  16.2 °C 45.3 °F /  7.4 °C 30.05 in /  1017.5 hPa SE 6 mph /  9.7 km/h 10 mph /  16.1 km/h 56 % 0 in /  0 mm
22:39 60.6 °F /  15.9 °C 45.3 °F /  7.4 °C 30.05 in /  1017.5 hPa SSW 4 mph /  6.4 km/h 10 mph /  16.1 km/h 57 % 0 in /  0 mm
22:44 60.4 °F /  15.8 °C 45.1 °F /  7.3 °C 30.05 in /  1017.5 hPa South 6.9 mph /  11.1 km/h 10 mph /  16.1 km/h 57 % 0 in /  0 mm
22:49 60.1 °F /  15.6 °C 45.3 °F /  7.4 °C 30.05 in /  1017.5 hPa South 6 mph /  9.7 km/h 9 mph /  14.5 km/h 58 % 0 in /  0 mm
22:54 60.3 °F /  15.7 °C 45 °F /  7.2 °C 30.05 in /  1017.5 hPa SSW 8.1 mph /  13 km/h 9 mph /  14.5 km/h 57 % 0 in /  0 mm
22:59 60.4 °F /  15.8 °C 45.1 °F /  7.3 °C 30.05 in /  1017.5 hPa SSW 11 mph /  17.7 km/h 11 mph /  17.7 km/h 57 % 0 in /  0 mm
23:04 60.3 °F /  15.7 °C 45 °F /  7.2 °C 30.05 in /  1017.5 hPa SSE 6 mph /  9.7 km/h 10 mph /  16.1 km/h 57 % 0 in /  0 mm
23:09 60.1 °F /  15.6 °C 45.3 °F /  7.4 °C 30.05 in /  1017.5 hPa SSW 8.1 mph /  13 km/h 9 mph /  14.5 km/h 58 % 0 in /  0 mm
23:14 60.1 °F /  15.6 °C 45.7 °F /  7.6 °C 30.05 in /  1017.5 hPa SW 8.1 mph /  13 km/h 10 mph /  16.1 km/h 59 % 0 in /  0 mm
23:19 60.1 °F /  15.6 °C 45.3 °F /  7.4 °C 30.05 in /  1017.5 hPa South 2.9 mph /  4.7 km/h 8 mph /  12.9 km/h 58 % 0 in /  0 mm
23:24 60.1 °F /  15.6 °C 45.3 °F /  7.4 °C 30.05 in /  1017.5 hPa South 4 mph /  6.4 km/h 9 mph /  14.5 km/h 58 % 0 in /  0 mm
23:29 60.1 °F /  15.6 °C 45.3 °F /  7.4 °C 30.05 in /  1017.5 hPa SSW 6 mph /  9.7 km/h 8 mph /  12.9 km/h 58 % 0 in /  0 mm
23:34 60.1 °F /  15.6 °C 45.3 °F /  7.4 °C 30.05 in /  1017.5 hPa SW 4.9 mph /  7.9 km/h 6 mph /  9.7 km/h 58 % 0 in /  0 mm
23:39 59.7 °F /  15.4 °C 45.3 °F /  7.4 °C 30.04 in /  1017.2 hPa SSW 2.9 mph /  4.7 km/h 8 mph /  12.9 km/h 59 % 0 in /  0 mm
23:44 59.4 °F /  15.2 °C 45.5 °F /  7.5 °C 30.04 in /  1017.2 hPa SSE 4 mph /  6.4 km/h 9 mph /  14.5 km/h 60 % 0 in /  0 mm
23:49 59.5 °F /  15.3 °C 45.1 °F /  7.3 °C 30.04 in /  1017.2 hPa SW 4.9 mph /  7.9 km/h 6 mph /  9.7 km/h 59 % 0 in /  0 mm
23:54 59.2 °F /  15.1 °C 44.8 °F /  7.1 °C 30.04 in /  1017.2 hPa SW 8.1 mph /  13 km/h 9 mph /  14.5 km/h 59 % 0 in /  0 mm
23:59 59 °F /  15 °C 45.1 °F /  7.3 °C 30.04 in /  1017.2 hPa SW 4.9 mph /  7.9 km/h 10 mph /  16.1 km/h 60 % 0 in /  0 mm
Evergreen Colorado, USA
Compliments of Weather Underground - 3.5 mb